createdAt,value
2023-02-14T00:00:15.537Z,43.68
2023-02-14T00:01:15.624Z,43.32
2023-02-14T00:02:15.583Z,43.75
2023-02-14T00:03:15.615Z,42.62
2023-02-14T00:04:15.714Z,42.38
2023-02-14T00:05:15.611Z,43.40
2023-02-14T00:06:15.639Z,42.93
2023-02-14T00:07:15.640Z,43.31
2023-02-14T00:08:15.685Z,42.97
2023-02-14T00:09:15.684Z,41.48
2023-02-14T00:10:15.668Z,41.49
2023-02-14T00:11:15.693Z,42.79
2023-02-14T00:12:15.678Z,41.13
2023-02-14T00:13:15.677Z,42.75
2023-02-14T00:14:16.135Z,39.85
2023-02-14T00:15:15.708Z,42.70
2023-02-14T00:16:15.800Z,42.25
2023-02-14T00:17:15.719Z,42.13
2023-02-14T00:18:15.746Z,41.59
2023-02-14T00:19:15.718Z,42.84
2023-02-14T00:20:15.749Z,42.95
2023-02-14T00:21:15.740Z,44.60
2023-02-14T00:22:15.771Z,51.91
2023-02-14T00:23:15.771Z,55.99
2023-02-14T00:24:15.785Z,62.18
2023-02-14T00:25:15.777Z,69.01
2023-02-14T00:26:15.812Z,73.86
2023-02-14T00:27:15.814Z,77.32
2023-02-14T00:28:15.777Z,80.41
2023-02-14T00:29:15.773Z,86.77
2023-02-14T00:30:15.849Z,90.78
2023-02-14T00:31:15.934Z,94.97
2023-02-14T00:32:15.891Z,101.29
2023-02-14T00:33:15.798Z,99.07
2023-02-14T00:34:15.812Z,99.42
2023-02-14T00:35:15.784Z,94.07
2023-02-14T00:36:15.811Z,94.28
2023-02-14T00:37:15.788Z,93.80
2023-02-14T00:38:15.824Z,92.67
2023-02-14T00:39:15.817Z,92.06
2023-02-14T00:40:15.857Z,89.54
2023-02-14T00:41:15.868Z,90.82
2023-02-14T00:42:15.840Z,92.80
2023-02-14T00:43:15.849Z,93.20
2023-02-14T00:44:15.887Z,94.18
2023-02-14T00:45:15.848Z,93.16
2023-02-14T00:46:15.920Z,95.61
2023-02-14T00:47:15.875Z,97.30
2023-02-14T00:48:15.865Z,98.61
2023-02-14T00:49:15.891Z,98.98
2023-02-14T00:50:15.908Z,97.10
2023-02-14T00:51:15.899Z,98.56
2023-02-14T00:52:15.924Z,95.63
2023-02-14T00:53:15.887Z,95.87
2023-02-14T00:54:15.894Z,96.77
2023-02-14T00:55:15.889Z,95.34
2023-02-14T00:56:15.919Z,96.88
2023-02-14T00:57:15.910Z,95.82
2023-02-14T00:58:15.928Z,96.64
2023-02-14T00:59:15.916Z,95.79
2023-02-14T01:00:15.902Z,97.08
2023-02-14T01:01:15.960Z,98.31
2023-02-14T01:02:15.945Z,95.88
2023-02-14T01:03:15.902Z,96.73
2023-02-14T01:04:15.924Z,94.99
2023-02-14T01:05:15.915Z,97.43
2023-02-14T01:06:15.904Z,96.53
2023-02-14T01:07:15.919Z,93.37
2023-02-14T01:08:15.923Z,93.77
2023-02-14T01:09:15.905Z,93.81
2023-02-14T01:10:15.910Z,94.77
2023-02-14T01:11:15.926Z,92.90
2023-02-14T01:12:15.937Z,92.00
2023-02-14T01:13:15.939Z,95.77
2023-02-14T01:14:15.921Z,93.61
2023-02-14T01:15:15.913Z,93.37
2023-02-14T01:16:15.994Z,92.74
2023-02-14T01:17:15.975Z,91.96
2023-02-14T01:18:15.955Z,91.89
2023-02-14T01:19:15.944Z,91.54
2023-02-14T01:20:15.958Z,92.88
2023-02-14T01:21:15.945Z,91.25
2023-02-14T01:22:16.076Z,89.60
2023-02-14T01:23:15.995Z,91.02
2023-02-14T01:24:15.966Z,90.09
2023-02-14T01:25:15.963Z,90.46
2023-02-14T01:34:16.137Z,87.97
2023-02-14T01:36:16.019Z,87.77
2023-02-14T01:46:16.069Z,85.62
2023-02-14T01:50:16.044Z,84.80
2023-02-14T01:51:16.035Z,85.90
2023-02-14T01:52:16.003Z,85.50
2023-02-14T01:53:16.025Z,85.66
2023-02-14T01:54:16.002Z,84.70
2023-02-14T01:55:15.985Z,85.79
2023-02-14T01:56:16.005Z,82.52
2023-02-14T01:57:16.034Z,82.24
2023-02-14T01:58:15.998Z,82.65
2023-02-14T01:59:15.984Z,82.12
2023-02-14T02:00:16.003Z,82.89
2023-02-14T02:01:16.053Z,83.19
2023-02-14T02:02:16.068Z,81.81
2023-02-14T02:03:16.002Z,80.88
2023-02-14T02:04:16.023Z,80.57
2023-02-14T02:05:16.029Z,80.52
2023-02-14T02:06:16.023Z,81.12
2023-02-14T02:07:16.020Z,79.61
2023-02-14T02:08:16.000Z,80.27
2023-02-14T02:09:15.982Z,79.87
2023-02-14T02:10:16.001Z,81.35
2023-02-14T02:11:16.001Z,80.80
2023-02-14T02:12:15.972Z,80.12
2023-02-14T02:13:15.986Z,80.80
2023-02-14T02:14:16.002Z,81.20
2023-02-14T02:15:15.966Z,80.86
2023-02-14T02:16:15.994Z,80.26
2023-02-14T02:17:15.960Z,80.02
2023-02-14T02:18:15.972Z,81.26
2023-02-14T02:19:16.021Z,80.09
2023-02-14T02:20:16.004Z,80.61
2023-02-14T02:21:16.006Z,79.04
2023-02-14T02:22:16.070Z,78.77
2023-02-14T02:23:16.102Z,79.84
2023-02-14T02:24:16.176Z,79.68
2023-02-14T02:25:16.270Z,79.06
2023-02-14T02:26:16.285Z,76.29
2023-02-14T02:27:16.326Z,78.04
2023-02-14T02:28:16.398Z,77.72
2023-02-14T02:29:16.433Z,77.02
2023-02-14T02:30:16.503Z,76.52
2023-02-14T02:31:16.673Z,77.59
2023-02-14T02:32:16.640Z,76.67
2023-02-14T02:33:16.739Z,77.03
2023-02-14T02:34:16.741Z,76.01
2023-02-14T02:35:16.790Z,75.32
2023-02-14T02:36:16.853Z,74.12
2023-02-14T02:37:16.918Z,76.30
2023-02-14T02:38:16.988Z,75.23
2023-02-14T02:39:17.087Z,75.45
2023-02-14T02:40:17.125Z,74.35
2023-02-14T02:41:17.178Z,75.69
2023-02-14T02:42:17.254Z,72.07
2023-02-14T02:43:17.288Z,72.20
2023-02-14T02:44:17.366Z,71.33
2023-02-14T02:45:17.430Z,71.73
2023-02-14T02:46:17.535Z,72.99
2023-02-14T02:47:17.558Z,71.35
2023-02-14T02:48:17.619Z,71.37
2023-02-14T02:49:17.665Z,71.59
2023-02-14T02:50:17.711Z,71.56
2023-02-14T02:51:17.782Z,71.69
2023-02-14T02:52:17.838Z,71.30
2023-02-14T02:53:17.886Z,71.86
2023-02-14T02:54:17.945Z,70.45
2023-02-14T02:55:18.020Z,70.34
2023-02-14T02:56:18.138Z,69.24
2023-02-14T02:57:18.085Z,70.09
2023-02-14T02:58:18.168Z,70.12
2023-02-14T02:59:18.277Z,72.80
2023-02-14T03:00:18.271Z,69.12
2023-02-14T03:01:18.349Z,67.20
2023-02-14T03:02:18.378Z,68.34
2023-02-14T03:03:18.427Z,64.96
2023-02-14T03:04:18.478Z,63.64
2023-02-14T03:05:18.526Z,64.35
2023-02-14T03:06:18.546Z,64.92
2023-02-14T03:07:18.609Z,67.04
2023-02-14T03:08:18.639Z,65.34
2023-02-14T03:09:18.727Z,61.31
2023-02-14T03:10:18.744Z,63.22
2023-02-14T03:11:18.778Z,60.43
2023-02-14T03:12:18.820Z,63.03
2023-02-14T03:13:18.867Z,64.20
2023-02-14T03:14:18.902Z,63.23
2023-02-14T03:15:18.926Z,64.50
2023-02-14T03:16:18.974Z,62.99
2023-02-14T03:17:19.033Z,60.30
2023-02-14T03:18:19.084Z,61.97
2023-02-14T03:19:19.146Z,58.64
2023-02-14T03:20:19.191Z,61.39
2023-02-14T03:21:19.179Z,60.79
2023-02-14T03:22:19.325Z,59.22
2023-02-14T03:23:19.293Z,60.98
2023-02-14T03:24:19.354Z,57.21
2023-02-14T03:25:19.382Z,62.13
2023-02-14T03:26:19.393Z,61.24
2023-02-14T03:27:19.458Z,60.44
2023-02-14T03:28:19.514Z,59.40
2023-02-14T03:29:19.545Z,60.76
2023-02-14T03:30:19.660Z,57.26
2023-02-14T03:31:19.767Z,56.63
2023-02-14T03:32:19.742Z,59.13
2023-02-14T03:33:19.676Z,58.32
2023-02-14T03:34:19.740Z,58.98
2023-02-14T03:35:19.790Z,53.57
2023-02-14T03:36:19.835Z,57.37
2023-02-14T03:37:19.838Z,54.34
2023-02-14T03:38:19.901Z,56.92
2023-02-14T03:39:19.926Z,57.50
2023-02-14T03:40:19.961Z,54.18
2023-02-14T03:41:19.991Z,59.76
2023-02-14T03:42:20.055Z,53.68
2023-02-14T03:43:20.092Z,55.48
2023-02-14T03:44:20.113Z,56.26
2023-02-14T03:45:20.206Z,55.72
2023-02-14T03:46:20.210Z,55.24
2023-02-14T03:47:20.241Z,54.18
2023-02-14T03:48:20.286Z,55.33
2023-02-14T03:49:20.300Z,53.97
2023-02-14T03:50:20.354Z,52.31
2023-02-14T03:51:20.406Z,53.12
2023-02-14T03:52:20.425Z,52.33
2023-02-14T03:53:20.455Z,52.81
2023-02-14T03:54:20.484Z,53.07
2023-02-14T03:55:20.547Z,53.31
2023-02-14T03:56:20.547Z,51.47
2023-02-14T03:57:20.594Z,51.48
2023-02-14T03:58:20.638Z,50.18
2023-02-14T03:59:20.694Z,50.49
2023-02-14T04:00:20.705Z,51.35
2023-02-14T04:01:20.809Z,51.15
2023-02-14T04:02:20.801Z,52.60
2023-02-14T04:03:20.885Z,50.70
2023-02-14T04:04:20.854Z,50.44
2023-02-14T04:05:20.885Z,51.40
2023-02-14T04:06:20.929Z,49.36
2023-02-14T04:07:20.963Z,49.09
2023-02-14T04:08:21.009Z,45.40
2023-02-14T04:09:21.086Z,53.67
2023-02-14T04:10:21.125Z,46.51
2023-02-14T04:11:22.597Z,49.57
2023-02-14T04:12:32.224Z,49.77
2023-02-14T04:13:22.073Z,50.16
2023-02-14T04:14:21.107Z,50.13
2023-02-14T04:15:21.078Z,50.07
2023-02-14T04:16:21.112Z,51.30
2023-02-14T04:17:21.032Z,49.77
2023-02-14T04:18:21.039Z,47.74
2023-02-14T04:19:21.004Z,49.08
2023-02-14T04:20:21.059Z,46.90
2023-02-14T04:21:21.012Z,48.82
2023-02-14T04:22:20.987Z,47.52
2023-02-14T04:23:20.992Z,43.19
2023-02-14T04:24:20.966Z,49.55
2023-02-14T04:25:20.993Z,44.67
2023-02-14T04:26:20.995Z,47.04
2023-02-14T04:27:21.050Z,47.24
2023-02-14T04:28:21.067Z,44.93
2023-02-14T04:29:21.105Z,46.39
2023-02-14T04:30:21.196Z,45.84
2023-02-14T04:31:21.353Z,44.52
2023-02-14T04:32:21.222Z,42.16
2023-02-14T04:33:21.246Z,45.68
2023-02-14T04:34:21.289Z,40.94
2023-02-14T04:35:21.301Z,44.08
2023-02-14T04:36:21.341Z,44.06
2023-02-14T04:37:21.397Z,40.91
2023-02-14T04:38:21.449Z,45.89
2023-02-14T04:39:21.453Z,43.46
2023-02-14T04:40:21.526Z,43.49
2023-02-14T04:41:21.529Z,45.23
2023-02-14T04:42:21.718Z,42.01
2023-02-14T04:43:21.583Z,43.67
2023-02-14T04:44:21.661Z,41.75
2023-02-14T04:45:21.695Z,43.46
2023-02-14T04:46:21.762Z,41.67
2023-02-14T04:47:21.789Z,43.76
2023-02-14T04:48:21.803Z,42.47
2023-02-14T04:49:21.860Z,41.98
2023-02-14T04:50:21.926Z,41.09
2023-02-14T04:51:21.919Z,43.76
2023-02-14T04:52:21.984Z,41.61
2023-02-14T04:53:22.035Z,41.98
2023-02-14T04:54:22.058Z,40.10
2023-02-14T04:55:22.124Z,39.30
2023-02-14T04:56:22.148Z,41.28
2023-02-14T04:57:22.205Z,38.53
2023-02-14T04:58:22.244Z,39.25
2023-02-14T04:59:24.442Z,39.35
2023-02-14T05:00:22.448Z,38.64
2023-02-14T05:01:22.499Z,41.50
2023-02-14T05:02:22.595Z,41.08
2023-02-14T05:03:22.582Z,37.95
2023-02-14T05:04:22.631Z,37.69
2023-02-14T05:05:22.735Z,40.09
2023-02-14T05:06:22.733Z,37.28
2023-02-14T05:07:22.802Z,39.40
2023-02-14T05:08:22.848Z,38.19
2023-02-14T05:09:22.921Z,37.84
2023-02-14T05:10:22.915Z,39.62
2023-02-14T05:11:22.972Z,38.04
2023-02-14T05:12:23.048Z,38.41
2023-02-14T05:13:23.087Z,38.75
2023-02-14T05:14:23.156Z,33.83
2023-02-14T05:15:23.207Z,37.41
2023-02-14T05:16:23.319Z,39.73
2023-02-14T05:17:23.286Z,40.03
2023-02-14T05:18:23.322Z,37.82
2023-02-14T05:19:23.408Z,35.74
2023-02-14T05:20:23.451Z,35.56
2023-02-14T05:21:23.511Z,38.39
2023-02-14T05:22:23.569Z,36.20
2023-02-14T05:23:23.586Z,35.03
2023-02-14T05:24:23.672Z,39.40
2023-02-14T05:25:23.692Z,38.01
2023-02-14T05:26:23.759Z,41.23
2023-02-14T05:27:23.805Z,39.69
2023-02-14T05:28:23.877Z,35.00
2023-02-14T05:29:23.917Z,33.80
2023-02-14T05:30:24.213Z,35.51
2023-02-14T05:31:24.097Z,34.00
2023-02-14T05:32:24.170Z,36.14
2023-02-14T05:33:24.130Z,32.03
2023-02-14T05:34:24.168Z,33.39
2023-02-14T05:35:24.240Z,35.17
2023-02-14T05:36:24.261Z,36.47
2023-02-14T05:37:24.319Z,34.21
2023-02-14T05:38:24.373Z,33.78
2023-02-14T05:39:24.460Z,36.11
2023-02-14T05:40:25.570Z,34.18
2023-02-14T05:41:24.540Z,36.39
2023-02-14T05:42:24.633Z,35.45
2023-02-14T05:43:24.634Z,35.47
2023-02-14T05:44:24.694Z,39.97
2023-02-14T05:45:24.834Z,35.55
2023-02-14T05:46:24.823Z,37.52
2023-02-14T05:47:24.879Z,34.13
2023-02-14T05:48:24.928Z,39.42
2023-02-14T05:49:24.962Z,35.46
2023-02-14T05:50:25.016Z,35.29
2023-02-14T05:51:25.095Z,36.71
2023-02-14T05:52:25.219Z,40.82
2023-02-14T05:53:25.224Z,39.07
2023-02-14T05:54:25.302Z,42.03
2023-02-14T05:55:25.331Z,43.02
2023-02-14T05:56:25.357Z,42.47
2023-02-14T05:57:25.433Z,40.80
2023-02-14T05:58:25.516Z,42.32
2023-02-14T05:59:25.557Z,38.74
2023-02-14T06:00:32.634Z,39.81
2023-02-14T06:01:25.612Z,40.22
2023-02-14T06:02:25.700Z,40.82
2023-02-14T06:03:25.583Z,40.40
2023-02-14T06:04:25.624Z,41.88
2023-02-14T06:05:25.569Z,37.44
2023-02-14T06:06:25.651Z,36.52
2023-02-14T06:07:25.556Z,39.04
2023-02-14T06:08:25.563Z,40.67
2023-02-14T06:09:25.552Z,37.39
2023-02-14T06:10:25.534Z,42.57
2023-02-14T06:11:25.525Z,40.11
2023-02-14T06:12:25.547Z,40.13
2023-02-14T06:13:25.506Z,40.07
2023-02-14T06:14:25.515Z,39.29
2023-02-14T06:15:25.524Z,40.35
2023-02-14T06:16:25.572Z,39.47
2023-02-14T06:17:25.524Z,40.88
2023-02-14T06:18:25.508Z,41.82
2023-02-14T06:19:25.461Z,44.03
2023-02-14T06:20:25.461Z,42.17
2023-02-14T06:21:25.461Z,39.36
2023-02-14T06:22:25.500Z,40.82
2023-02-14T06:23:25.443Z,39.38
2023-02-14T06:24:25.466Z,34.93
2023-02-14T06:25:25.499Z,37.68
2023-02-14T06:26:25.587Z,37.62
2023-02-14T06:27:25.607Z,39.09
2023-02-14T06:28:25.715Z,38.77
2023-02-14T06:29:25.770Z,37.56
2023-02-14T06:30:25.937Z,40.32
2023-02-14T06:31:25.890Z,41.57
2023-02-14T06:32:25.891Z,42.76
2023-02-14T06:33:25.918Z,40.84
2023-02-14T06:34:25.999Z,39.71
2023-02-14T06:35:26.056Z,37.32
2023-02-14T06:36:26.080Z,37.26
2023-02-14T06:37:26.140Z,38.36
2023-02-14T06:38:26.160Z,40.95
2023-02-14T06:39:26.242Z,36.79
2023-02-14T06:40:26.293Z,38.86
2023-02-14T06:41:26.328Z,37.32
2023-02-14T06:42:26.408Z,38.44
2023-02-14T06:43:26.425Z,36.11
2023-02-14T06:44:26.496Z,37.77
2023-02-14T06:45:26.519Z,38.28
2023-02-14T06:47:26.646Z,38.31
2023-02-14T06:48:26.712Z,38.59
2023-02-14T06:49:26.769Z,38.57
2023-02-14T06:50:26.895Z,40.24
2023-02-14T06:51:26.831Z,37.88
2023-02-14T06:52:26.949Z,34.62
2023-02-14T06:53:26.942Z,38.50
2023-02-14T06:54:26.995Z,37.57
2023-02-14T06:55:27.066Z,35.05
2023-02-14T06:56:27.114Z,35.67
2023-02-14T06:57:27.160Z,36.30
2023-02-14T06:58:27.212Z,37.90
2023-02-14T06:59:27.266Z,39.27
2023-02-14T07:00:27.317Z,38.68
2023-02-14T07:01:27.379Z,37.01
2023-02-14T07:02:27.417Z,39.62
2023-02-14T07:03:27.458Z,38.10
2023-02-14T07:04:27.505Z,36.38
2023-02-14T07:05:27.551Z,37.50
2023-02-14T07:06:27.638Z,33.75
2023-02-14T07:07:27.668Z,38.41
2023-02-14T07:08:27.709Z,35.61
2023-02-14T07:09:27.792Z,33.79
2023-02-14T07:10:27.822Z,39.90
2023-02-14T07:11:27.857Z,35.85
2023-02-14T07:12:27.955Z,35.04
2023-02-14T07:14:28.050Z,37.49
2023-02-14T07:46:29.587Z,38.12
2023-02-14T07:51:29.737Z,37.85
2023-02-14T07:56:29.940Z,38.62
2023-02-14T08:13:30.602Z,41.84
2023-02-14T08:14:30.681Z,40.21
2023-02-14T08:15:30.701Z,39.40
2023-02-14T08:16:30.802Z,39.25
2023-02-14T08:17:30.768Z,38.91
2023-02-14T08:24:31.022Z,38.20
2023-02-14T08:25:31.060Z,38.53
2023-02-14T08:26:31.072Z,37.56
2023-02-14T08:27:31.105Z,38.71
2023-02-14T08:28:31.180Z,39.70
2023-02-14T08:29:31.182Z,38.62
2023-02-14T08:30:31.327Z,39.30
2023-02-14T08:31:35.953Z,36.98
2023-02-14T09:14:32.260Z,79.68
2023-02-14T09:15:32.284Z,77.23
2023-02-14T09:16:32.499Z,80.05
2023-02-14T09:17:32.343Z,83.87
2023-02-14T09:18:32.387Z,84.50
2023-02-14T09:19:32.526Z,83.54
2023-02-14T09:20:32.443Z,83.28
2023-02-14T09:21:32.513Z,81.70
2023-02-14T09:22:32.498Z,80.66
2023-02-14T09:23:32.532Z,83.06
2023-02-14T09:24:32.602Z,79.40
2023-02-14T09:25:32.598Z,81.84
2023-02-14T09:26:32.649Z,80.45
2023-02-14T09:27:32.681Z,79.15
2023-02-14T09:28:32.710Z,81.07
2023-02-14T10:23:34.652Z,67.34
2023-02-14T10:24:34.663Z,68.48
2023-02-14T10:25:34.745Z,70.67
2023-02-14T10:26:34.761Z,70.17
2023-02-14T10:27:34.807Z,71.17
2023-02-14T10:28:34.796Z,70.43
2023-02-14T10:29:34.874Z,69.83
2023-02-14T10:30:35.054Z,69.42
2023-02-14T10:31:35.063Z,70.31
2023-02-14T10:32:34.968Z,70.51
2023-02-14T10:33:34.997Z,70.17
2023-02-14T10:34:35.038Z,69.68
2023-02-14T10:35:35.082Z,66.64
2023-02-14T10:36:35.134Z,69.81
2023-02-14T10:37:35.159Z,66.69
2023-02-14T10:38:35.218Z,70.26
2023-02-14T10:39:35.251Z,71.59
2023-02-14T10:40:35.319Z,73.05
2023-02-14T10:41:35.322Z,76.34
2023-02-14T10:42:35.401Z,74.99
2023-02-14T10:43:35.418Z,77.60
2023-02-14T10:44:35.446Z,80.97
2023-02-14T10:45:35.524Z,84.77
2023-02-14T11:00:36.007Z,91.01
2023-02-14T11:01:36.103Z,90.76
2023-02-14T14:23:44.680Z,138.06
2023-02-14T14:24:44.705Z,141.26
2023-02-14T14:25:44.784Z,139.96
2023-02-14T14:26:44.827Z,138.55
2023-02-14T14:27:44.899Z,142.53
2023-02-14T14:28:44.911Z,139.19
2023-02-14T14:29:44.962Z,138.13
2023-02-14T14:30:45.093Z,136.31
2023-02-14T14:31:45.112Z,136.51
2023-02-14T14:32:45.174Z,137.48
2023-02-14T14:33:45.223Z,133.83
2023-02-14T14:34:45.261Z,134.71
2023-02-14T14:35:45.328Z,132.33
2023-02-14T14:36:45.384Z,133.27
2023-02-14T14:37:45.419Z,133.11
2023-02-14T14:38:45.504Z,132.20
2023-02-14T14:39:45.543Z,131.43
2023-02-14T14:40:45.606Z,131.06
2023-02-14T15:00:46.845Z,123.81
2023-02-14T15:01:46.854Z,123.89
2023-02-14T15:02:46.936Z,126.77
2023-02-14T15:03:46.971Z,124.10
2023-02-14T15:04:47.104Z,126.87
2023-02-14T15:05:47.091Z,124.11
2023-02-14T15:06:47.179Z,123.83
2023-02-14T15:07:47.880Z,126.69
2023-02-14T15:08:47.289Z,123.89
2023-02-14T15:09:47.374Z,122.36
2023-02-14T15:10:47.427Z,124.81
2023-02-14T15:11:47.470Z,125.04
2023-02-14T15:12:47.538Z,123.50
2023-02-14T15:13:47.593Z,122.50
2023-02-14T15:14:47.703Z,123.13
2023-02-14T15:15:47.731Z,120.11
2023-02-14T15:16:47.867Z,118.93
2023-02-14T15:17:47.872Z,119.99
2023-02-14T15:18:47.932Z,120.03
2023-02-14T15:19:47.977Z,122.11
2023-02-14T15:20:48.045Z,121.60
2023-02-14T15:21:48.111Z,120.24
2023-02-14T15:22:48.161Z,117.92
2023-02-14T15:23:48.222Z,119.24
2023-02-14T18:28:51.920Z,63.08
2023-02-14T18:29:51.948Z,64.49
2023-02-14T18:30:51.948Z,63.08
2023-02-14T18:31:52.151Z,64.29
2023-02-14T18:32:51.932Z,61.63
2023-02-14T18:33:52.012Z,64.42
2023-02-14T18:34:51.980Z,62.82
2023-02-14T18:35:51.982Z,63.44
2023-02-14T18:36:51.986Z,63.84
2023-02-14T18:37:51.998Z,64.96
2023-02-14T18:38:52.007Z,63.35
2023-02-14T18:39:52.003Z,65.17
2023-02-14T18:40:52.064Z,64.16
2023-02-14T18:41:52.050Z,64.54
2023-02-14T18:42:52.075Z,63.49
2023-02-14T18:43:52.094Z,62.12
2023-02-14T18:44:52.064Z,62.21
2023-02-14T18:45:52.136Z,62.00
2023-02-14T18:46:52.104Z,62.64
2023-02-14T18:47:52.112Z,63.65
2023-02-14T18:48:52.098Z,63.96
2023-02-14T18:49:52.117Z,64.67
2023-02-14T18:50:52.889Z,63.51
2023-02-14T18:51:52.163Z,65.18
2023-02-14T18:52:52.117Z,64.78
2023-02-14T18:53:52.214Z,65.43
2023-02-14T18:54:52.132Z,65.15
2023-02-14T18:55:52.154Z,67.58
2023-02-14T18:56:52.207Z,64.78
2023-02-14T18:57:52.233Z,63.57
2023-02-14T18:58:52.182Z,65.08
2023-02-14T18:59:52.230Z,68.06
2023-02-14T19:03:52.254Z,64.44
2023-02-14T19:04:52.260Z,65.27
2023-02-14T19:05:52.260Z,66.11
2023-02-14T19:06:52.294Z,64.49
2023-02-14T19:07:52.281Z,64.27
2023-02-14T19:08:52.287Z,63.32
2023-02-14T19:09:52.308Z,64.74
2023-02-14T19:10:52.299Z,65.39
2023-02-14T19:11:52.296Z,66.21
2023-02-14T19:12:52.355Z,64.53
2023-02-14T19:13:52.331Z,62.75
2023-02-14T19:14:52.706Z,64.73
2023-02-14T19:15:52.348Z,65.06
2023-02-14T19:16:52.360Z,64.45
2023-02-14T19:18:52.360Z,65.71
2023-02-14T19:19:52.382Z,64.88
2023-02-14T19:20:52.359Z,68.96
2023-02-14T19:21:52.409Z,64.57
2023-02-14T19:22:52.396Z,66.34
2023-02-14T19:23:52.986Z,67.21
2023-02-14T22:34:54.627Z,52.27
2023-02-14T22:36:54.679Z,52.20
2023-02-14T22:37:54.677Z,50.26
2023-02-14T22:38:54.698Z,50.66
2023-02-14T22:39:54.837Z,50.10
2023-02-14T22:40:54.739Z,51.11
2023-02-14T22:41:54.719Z,51.43
2023-02-14T22:42:54.753Z,51.21
2023-02-14T22:43:54.726Z,51.26
2023-02-14T22:44:54.787Z,51.95
2023-02-14T22:45:54.782Z,49.55
2023-02-14T22:46:54.914Z,51.47
2023-02-14T22:47:54.813Z,51.90
2023-02-14T22:48:54.858Z,48.98
2023-02-14T22:49:54.813Z,49.58
2023-02-14T22:50:54.861Z,49.08
2023-02-14T22:51:54.853Z,50.08
2023-02-14T22:52:54.909Z,50.02
2023-02-14T22:53:54.882Z,48.53
2023-02-14T22:54:54.901Z,48.97
2023-02-14T22:55:54.896Z,48.80
2023-02-14T22:56:54.946Z,50.45
2023-02-14T22:57:54.955Z,49.17
2023-02-14T22:58:54.965Z,49.34
2023-02-14T22:59:54.952Z,47.37
2023-02-14T23:00:54.964Z,47.88
2023-02-14T23:01:55.091Z,47.42
2023-02-14T23:02:55.040Z,46.70
2023-02-14T23:03:55.037Z,46.32
2023-02-14T23:04:57.153Z,47.34
2023-02-14T23:05:55.026Z,47.27
2023-02-14T23:06:55.064Z,47.84
2023-02-14T23:07:55.083Z,48.36
2023-02-14T23:08:55.123Z,46.62
2023-02-14T23:09:55.108Z,47.61
2023-02-14T23:10:55.094Z,46.85
2023-02-14T23:11:55.116Z,46.90
2023-02-14T23:12:55.157Z,46.42
2023-02-14T23:13:55.132Z,45.72
2023-02-14T23:14:55.153Z,46.06
2023-02-14T23:15:55.225Z,45.73
2023-02-14T23:16:55.147Z,43.74
2023-02-14T23:17:55.182Z,43.89
2023-02-14T23:18:55.167Z,44.26
2023-02-14T23:19:55.218Z,43.69
2023-02-14T23:20:55.219Z,43.16
2023-02-14T23:21:55.260Z,44.40
2023-02-14T23:22:55.283Z,43.88
2023-02-14T23:23:55.280Z,43.66
2023-02-14T23:24:55.328Z,43.11
2023-02-14T23:25:55.274Z,43.41
2023-02-14T23:26:55.317Z,43.24
2023-02-14T23:27:55.351Z,42.85
2023-02-14T23:28:55.349Z,41.18
2023-02-14T23:29:55.427Z,43.57
2023-02-14T23:30:55.404Z,44.59
2023-02-14T23:31:55.498Z,42.76
2023-02-14T23:32:55.426Z,42.89
2023-02-14T23:33:55.421Z,42.74
2023-02-14T23:34:55.426Z,42.37
2023-02-14T23:39:55.499Z,41.35
2023-02-14T23:52:55.602Z,40.15
2023-02-14T23:53:55.634Z,40.29
2023-02-14T23:54:55.645Z,40.21
2023-02-14T23:55:55.659Z,38.00
2023-02-14T23:56:55.680Z,38.46
2023-02-14T23:57:55.673Z,39.31
2023-02-14T23:58:55.699Z,37.52
2023-02-14T23:59:55.678Z,38.80
